createdAt,value
2023-01-17T00:02:04.155Z,94935.20
2023-01-17T00:04:49.537Z,94936.60
2023-01-17T00:07:37.456Z,94940.40
2023-01-17T00:10:07.541Z,94938.20
2023-01-17T00:12:35.125Z,94933.60
2023-01-17T00:15:02.338Z,94934.20
2023-01-17T00:17:30.009Z,94935.80
2023-01-17T00:20:15.360Z,94945.20
2023-01-17T00:23:04.283Z,94937.00
2023-01-17T00:25:56.585Z,94939.40
2023-01-17T00:28:24.747Z,94951.40
2023-01-17T00:30:52.171Z,94951.00
2023-01-17T00:33:20.497Z,94953.00
2023-01-17T00:35:48.091Z,94958.20
2023-01-17T00:38:21.017Z,94962.60
2023-01-17T00:40:48.981Z,94958.20
2023-01-17T00:43:39.313Z,94960.80
2023-01-17T00:46:25.936Z,94959.60
2023-01-17T00:49:11.837Z,94962.20
2023-01-17T00:51:57.690Z,94965.20
2023-01-17T00:54:43.437Z,94962.40
2023-01-17T00:57:29.278Z,94965.80
2023-01-17T01:00:15.012Z,94961.20
2023-01-17T01:03:00.694Z,94954.60
2023-01-17T01:05:46.886Z,94949.60
2023-01-17T01:08:38.824Z,94955.00
2023-01-17T01:11:26.552Z,94956.20
2023-01-17T01:14:12.196Z,94953.40
2023-01-17T01:16:57.721Z,94949.20
2023-01-17T01:19:43.519Z,94952.60
2023-01-17T01:22:29.238Z,94957.20
2023-01-17T01:25:15.109Z,94956.00
2023-01-17T01:28:00.766Z,94948.40
2023-01-17T01:30:46.443Z,94951.00
2023-01-17T01:33:21.371Z,94955.80
2023-01-17T01:35:53.950Z,94959.80
2023-01-17T01:38:23.618Z,94959.80
2023-01-17T01:40:56.135Z,94956.40
2023-01-17T01:43:46.348Z,94957.20
2023-01-17T01:46:29.274Z,94963.40
2023-01-17T01:49:02.547Z,94963.00
2023-01-17T01:51:38.713Z,94964.60
2023-01-17T01:54:09.878Z,94970.20
2023-01-17T01:56:39.057Z,94972.60
2023-01-17T01:59:09.059Z,94970.80
2023-01-17T02:01:36.402Z,94973.60
2023-01-17T02:04:09.814Z,94974.40
2023-01-17T02:06:46.075Z,94974.20
2023-01-17T02:09:15.439Z,94971.40
2023-01-17T02:11:43.593Z,94966.80
2023-01-17T02:14:16.152Z,94969.20
2023-01-17T02:17:21.735Z,94966.60
2023-01-17T02:20:13.687Z,94967.80
2023-01-17T02:22:51.147Z,94966.60
2023-01-17T02:25:24.178Z,94965.60
2023-01-17T02:28:01.573Z,94962.80
2023-01-17T02:30:31.255Z,94968.60
2023-01-17T02:33:16.661Z,94965.80
2023-01-17T02:35:58.649Z,94968.80
2023-01-17T02:38:39.668Z,94973.60
2023-01-17T02:41:16.633Z,94972.40
2023-01-17T02:43:43.655Z,94971.40
2023-01-17T02:46:10.420Z,94972.80
2023-01-17T02:48:38.606Z,94972.60
2023-01-17T02:51:20.665Z,94975.60
2023-01-17T02:54:02.370Z,94975.40
2023-01-17T02:56:40.958Z,94975.60
2023-01-17T02:59:27.904Z,94973.60
2023-01-17T03:02:00.466Z,94980.80
2023-01-17T03:04:27.416Z,94982.20
2023-01-17T03:07:03.074Z,94985.60
2023-01-17T03:09:31.946Z,94981.40
2023-01-17T03:12:00.019Z,94980.20
2023-01-17T03:14:26.745Z,94979.80
2023-01-17T03:16:53.566Z,94982.80
2023-01-17T03:19:20.419Z,94985.20
2023-01-17T03:21:47.210Z,94984.40
2023-01-17T03:24:13.888Z,94988.00
2023-01-17T03:26:40.762Z,94992.00
2023-01-17T03:29:07.849Z,94991.80
2023-01-17T03:31:34.754Z,94995.60
2023-01-17T03:34:01.536Z,94995.20
2023-01-17T03:36:28.548Z,94997.40
2023-01-17T03:38:55.262Z,95001.00
2023-01-17T03:41:21.982Z,95002.20
2023-01-17T03:43:48.777Z,95005.60
2023-01-17T03:46:24.722Z,95002.00
2023-01-17T03:48:51.980Z,95003.00
2023-01-17T03:51:19.323Z,95007.00
2023-01-17T03:53:47.042Z,95010.00
2023-01-17T03:56:14.513Z,95011.00
2023-01-17T03:58:42.016Z,95006.40
2023-01-17T04:01:09.126Z,95007.80
2023-01-17T04:03:36.009Z,95009.20
2023-01-17T04:06:02.728Z,95002.80
2023-01-17T04:08:30.665Z,94998.20
2023-01-17T04:10:57.460Z,95004.00
2023-01-17T04:13:24.224Z,95002.80
2023-01-17T04:15:51.650Z,95005.60
2023-01-17T04:18:20.404Z,95005.60
2023-01-17T04:20:47.789Z,95008.60
2023-01-17T04:23:14.616Z,95005.80
2023-01-17T04:25:41.676Z,95004.60
2023-01-17T04:28:08.902Z,94999.00
2023-01-17T04:30:35.714Z,94993.80
2023-01-17T04:33:02.938Z,94991.20
2023-01-17T04:35:31.407Z,94991.60
2023-01-17T04:37:58.140Z,94992.60
2023-01-17T04:40:25.179Z,94998.40
2023-01-17T04:42:52.312Z,95006.00
2023-01-17T04:45:19.033Z,95008.40
2023-01-17T04:47:45.825Z,95012.60
2023-01-17T04:50:13.064Z,95008.20
2023-01-17T04:52:39.873Z,95008.60
2023-01-17T04:55:07.225Z,95015.40
2023-01-17T04:57:34.026Z,95017.40
2023-01-17T05:00:00.858Z,95017.60
2023-01-17T05:02:27.644Z,95018.40
2023-01-17T05:04:54.523Z,95021.00
2023-01-17T05:07:21.375Z,95026.20
2023-01-17T05:09:48.084Z,95025.40
2023-01-17T05:12:14.858Z,95031.80
2023-01-17T05:14:41.689Z,95032.40
2023-01-17T05:17:08.733Z,95032.20
2023-01-17T05:19:35.793Z,95033.00
2023-01-17T05:22:15.118Z,95032.20
2023-01-17T05:24:46.780Z,95035.40
2023-01-17T05:27:14.711Z,95033.00
2023-01-17T05:29:41.817Z,95032.20
2023-01-17T05:32:09.147Z,95031.40
2023-01-17T05:34:35.892Z,95030.60
2023-01-17T05:37:02.833Z,95028.60
2023-01-17T05:39:31.109Z,95035.80
2023-01-17T05:41:59.181Z,95041.40
2023-01-17T05:44:27.740Z,95044.20
2023-01-17T05:46:56.416Z,95046.80
2023-01-17T05:49:23.290Z,95052.20
2023-01-17T05:51:50.334Z,95058.00
2023-01-17T05:54:17.587Z,95064.00
2023-01-17T05:56:44.588Z,95062.40
2023-01-17T05:59:14.028Z,95067.80
2023-01-17T06:01:41.077Z,95061.80
2023-01-17T06:04:07.919Z,95070.40
2023-01-17T06:06:34.770Z,95069.40
2023-01-17T06:09:01.545Z,95067.20
2023-01-17T06:11:28.273Z,95066.00
2023-01-17T06:13:55.218Z,95063.20
2023-01-17T06:16:22.084Z,95062.80
2023-01-17T06:18:48.974Z,95064.60
2023-01-17T06:21:15.760Z,95067.20
2023-01-17T06:23:42.562Z,95075.80
2023-01-17T06:26:09.809Z,95078.80
2023-01-17T06:28:36.685Z,95087.20
2023-01-17T06:31:08.467Z,95093.20
2023-01-17T06:33:35.558Z,95095.20
2023-01-17T06:36:02.305Z,95099.60
2023-01-17T06:38:30.069Z,95104.20
2023-01-17T06:41:00.349Z,95107.40
2023-01-17T06:43:28.734Z,95110.40
2023-01-17T06:45:55.606Z,95115.80
2023-01-17T06:48:22.452Z,95120.60
2023-01-17T06:50:49.966Z,95121.60
2023-01-17T06:53:16.857Z,95125.20
2023-01-17T06:55:43.793Z,95129.20
2023-01-17T06:58:10.585Z,95131.60
2023-01-17T07:00:40.346Z,95132.40
2023-01-17T07:03:15.312Z,95134.40
2023-01-17T07:05:42.218Z,95139.80
2023-01-17T07:08:08.952Z,95140.60
2023-01-17T07:10:35.675Z,95145.00
2023-01-17T07:13:02.545Z,95150.20
2023-01-17T07:15:29.302Z,95144.40
2023-01-17T07:17:56.045Z,95139.40
2023-01-17T07:20:22.763Z,95147.60
2023-01-17T07:22:49.502Z,95141.60
2023-01-17T07:25:16.272Z,95134.20
2023-01-17T07:27:42.946Z,95128.60
2023-01-17T07:30:10.582Z,95134.20
2023-01-17T07:32:37.487Z,95134.40
2023-01-17T07:35:05.355Z,95131.60
2023-01-17T07:37:32.399Z,95134.00
2023-01-17T07:40:01.142Z,95132.80
2023-01-17T07:42:28.335Z,95135.20
2023-01-17T07:44:55.090Z,95132.60
2023-01-17T07:47:22.125Z,95133.80
2023-01-17T07:49:48.892Z,95124.20
2023-01-17T07:52:18.089Z,95117.80
2023-01-17T07:54:45.106Z,95116.00
2023-01-17T07:57:12.764Z,95109.60
2023-01-17T07:59:39.540Z,95104.00
2023-01-17T08:02:06.359Z,95094.20
2023-01-17T08:04:35.443Z,95108.80
2023-01-17T08:07:02.544Z,95107.20
2023-01-17T08:09:29.651Z,95108.20
2023-01-17T08:11:56.675Z,95107.20
2023-01-17T08:14:23.545Z,95102.80
2023-01-17T08:16:50.374Z,95104.60
2023-01-17T08:19:17.543Z,95115.60
2023-01-17T08:21:44.619Z,95120.60
2023-01-17T08:24:14.820Z,95129.00
2023-01-17T08:26:41.725Z,95137.20
2023-01-17T08:29:09.463Z,95135.20
2023-01-17T08:31:36.841Z,95129.80
2023-01-17T08:34:04.218Z,95132.60
2023-01-17T08:36:31.569Z,95130.60
2023-01-17T08:38:58.969Z,95133.80
2023-01-17T08:41:27.961Z,95137.80
2023-01-17T08:43:54.971Z,95144.80
2023-01-17T08:46:22.641Z,95151.40
2023-01-17T08:48:54.296Z,95155.00
2023-01-17T08:51:21.130Z,95152.60
2023-01-17T08:53:48.713Z,95153.00
2023-01-17T08:56:15.415Z,95149.00
2023-01-17T08:58:42.178Z,95154.00
2023-01-17T09:01:09.097Z,95144.80
2023-01-17T09:03:38.385Z,95148.00
2023-01-17T09:06:09.595Z,95145.40
2023-01-17T09:08:37.517Z,95143.00
2023-01-17T09:11:09.655Z,95146.60
2023-01-17T09:13:37.169Z,95143.80
2023-01-17T09:16:05.360Z,95143.20
2023-01-17T09:18:33.896Z,95138.60
2023-01-17T09:21:16.733Z,95138.00
2023-01-17T09:23:44.081Z,95132.40
2023-01-17T09:26:23.468Z,95132.00
2023-01-17T09:28:50.960Z,95127.40
2023-01-17T09:31:20.752Z,95121.60
2023-01-17T09:33:51.852Z,95122.40
2023-01-17T09:36:18.806Z,95123.80
2023-01-17T09:38:46.240Z,95121.20
2023-01-17T09:41:56.462Z,95116.20
2023-01-17T09:44:31.606Z,95103.40
2023-01-17T09:47:07.666Z,95100.60
2023-01-17T09:49:42.633Z,95099.00
2023-01-17T09:52:13.542Z,95093.60
2023-01-17T09:54:45.852Z,95089.80
2023-01-17T09:57:21.255Z,95081.80
2023-01-17T10:00:02.967Z,95077.80
2023-01-17T10:03:11.043Z,95069.60
2023-01-17T10:05:44.419Z,95057.80
2023-01-17T10:08:26.851Z,95043.60
2023-01-17T10:11:02.258Z,95030.40
2023-01-17T10:13:50.259Z,95018.80
2023-01-17T10:16:19.911Z,95009.00
2023-01-17T10:18:46.762Z,94997.40
2023-01-17T10:21:13.562Z,94987.20
2023-01-17T10:23:51.527Z,94981.80
2023-01-17T10:26:23.899Z,94981.40
2023-01-17T10:28:53.205Z,94975.80
2023-01-17T10:31:28.159Z,94974.20
2023-01-17T10:34:06.495Z,94974.60
2023-01-17T10:36:46.835Z,94985.40
2023-01-17T10:39:19.518Z,94988.60
2023-01-17T10:41:55.276Z,94988.00
2023-01-17T10:44:37.415Z,94980.00
2023-01-17T10:47:04.151Z,94974.80
2023-01-17T10:49:31.219Z,94967.20
2023-01-17T10:52:10.188Z,94957.00
2023-01-17T10:54:42.886Z,94952.40
2023-01-17T10:57:16.028Z,94946.60
2023-01-17T10:59:44.290Z,94945.60
2023-01-17T11:02:26.012Z,94935.20
2023-01-17T11:04:55.219Z,94938.00
2023-01-17T11:07:26.859Z,94941.00
2023-01-17T11:09:55.936Z,94936.00
2023-01-17T11:12:40.302Z,94924.20
2023-01-17T11:15:09.844Z,94929.00
2023-01-17T11:17:38.998Z,94933.00
2023-01-17T11:20:13.692Z,94932.80
2023-01-17T11:22:43.264Z,94934.40
2023-01-17T11:25:22.137Z,94932.80
2023-01-17T11:28:02.037Z,94924.60
2023-01-17T11:30:29.695Z,94907.80
2023-01-17T11:33:03.398Z,94898.40
2023-01-17T11:35:32.669Z,94896.00
2023-01-17T11:38:20.806Z,94890.20
2023-01-17T11:40:49.970Z,94880.00
2023-01-17T11:43:26.583Z,94861.00
2023-01-17T11:46:20.604Z,94856.80
2023-01-17T11:48:56.546Z,94864.60
2023-01-17T11:51:41.641Z,94850.40
2023-01-17T11:54:21.009Z,94841.20
2023-01-17T11:56:48.155Z,94832.60
2023-01-17T11:59:35.333Z,94823.00
2023-01-17T12:02:31.948Z,94819.20
2023-01-17T12:05:40.445Z,94817.00
2023-01-17T12:08:36.512Z,94810.00
2023-01-17T12:11:07.715Z,94800.80
2023-01-17T12:14:04.905Z,94796.40
2023-01-17T12:16:43.787Z,94803.80
2023-01-17T12:19:36.839Z,94808.00
2023-01-17T12:22:20.069Z,94802.00
2023-01-17T12:25:18.179Z,94803.80
2023-01-17T12:28:06.749Z,94804.60
2023-01-17T12:30:45.478Z,94817.60
2023-01-17T12:33:27.970Z,94821.20
2023-01-17T12:35:58.894Z,94828.00
2023-01-17T12:38:40.248Z,94822.60
2023-01-17T12:41:12.507Z,94817.80
2023-01-17T12:43:44.190Z,94811.80
2023-01-17T12:46:38.807Z,94806.00
2023-01-17T12:49:28.975Z,94793.80
2023-01-17T12:52:06.545Z,94786.00
2023-01-17T12:54:41.413Z,94780.60
2023-01-17T12:57:14.037Z,94776.40
2023-01-17T13:00:04.707Z,94781.80
2023-01-17T13:02:37.963Z,94768.80
2023-01-17T13:05:17.089Z,94759.80
2023-01-17T13:08:04.608Z,94750.00
2023-01-17T13:10:32.047Z,94752.00
2023-01-17T13:13:09.855Z,94753.20
2023-01-17T13:15:40.608Z,94762.40
2023-01-17T13:18:22.803Z,94759.20
2023-01-17T13:20:53.859Z,94761.40
2023-01-17T13:23:30.859Z,94764.00
2023-01-17T13:26:00.283Z,94765.60
2023-01-17T13:28:43.540Z,94770.00
2023-01-17T13:31:19.454Z,94769.20
2023-01-17T13:33:58.633Z,94747.20
2023-01-17T13:36:44.213Z,94746.80
2023-01-17T13:39:33.397Z,94753.40
2023-01-17T13:42:12.028Z,94744.40
2023-01-17T13:44:39.301Z,94730.60
2023-01-17T13:47:18.198Z,94741.60
2023-01-17T13:49:51.385Z,94754.00
2023-01-17T13:52:20.908Z,94735.60
2023-01-17T13:54:53.034Z,94719.80
2023-01-17T13:57:30.420Z,94705.20
2023-01-17T14:00:16.340Z,94689.40
2023-01-17T14:02:43.791Z,94688.80
2023-01-17T14:05:15.361Z,94702.80
2023-01-17T14:07:49.708Z,94713.80
2023-01-17T14:10:22.528Z,94706.20
2023-01-17T14:12:49.697Z,94706.80
2023-01-17T14:15:24.820Z,94706.40
2023-01-17T14:17:56.020Z,94705.00
2023-01-17T14:20:25.692Z,94696.20
2023-01-17T14:23:02.213Z,94678.20
2023-01-17T14:25:31.327Z,94659.80
2023-01-17T14:28:19.181Z,94646.20
2023-01-17T14:30:46.436Z,94649.00
2023-01-17T14:33:20.377Z,94662.60
2023-01-17T14:35:54.618Z,94658.20
2023-01-17T14:38:22.918Z,94638.80
2023-01-17T14:41:02.542Z,94640.80
2023-01-17T14:43:33.085Z,94647.20
2023-01-17T14:46:16.802Z,94627.40
2023-01-17T14:48:43.540Z,94609.60
2023-01-17T14:51:18.848Z,94596.20
2023-01-17T14:54:03.261Z,94583.80
2023-01-17T14:56:31.534Z,94583.20
2023-01-17T14:59:20.311Z,94584.80
2023-01-17T15:02:06.571Z,94581.80
2023-01-17T15:04:39.618Z,94592.00
2023-01-17T15:07:07.747Z,94597.80
2023-01-17T15:09:37.993Z,94600.80
2023-01-17T15:12:08.204Z,94607.00
2023-01-17T15:14:38.423Z,94598.80
2023-01-17T15:17:27.579Z,94592.80
2023-01-17T15:19:59.661Z,94584.00
2023-01-17T15:22:27.098Z,94580.20
2023-01-17T15:24:54.511Z,94563.00
2023-01-17T15:27:21.929Z,94551.00
2023-01-17T15:29:49.077Z,94545.80
2023-01-17T15:32:28.073Z,94550.60
2023-01-17T15:34:54.931Z,94558.80
2023-01-17T15:37:28.977Z,94552.00
2023-01-17T15:40:22.509Z,94542.20
2023-01-17T15:42:58.878Z,94546.60
2023-01-17T15:45:31.099Z,94554.80
2023-01-17T15:48:01.662Z,94555.40
2023-01-17T15:50:31.084Z,94554.80
2023-01-17T15:52:59.163Z,94553.00
2023-01-17T15:55:34.553Z,94553.20
2023-01-17T15:58:03.127Z,94553.80
2023-01-17T16:00:37.491Z,94544.40
2023-01-17T16:03:19.961Z,94542.20
2023-01-17T16:05:47.763Z,94538.80
2023-01-17T16:08:23.305Z,94543.40
2023-01-17T16:10:53.738Z,94547.60
2023-01-17T16:13:21.811Z,94547.80
2023-01-17T16:15:49.020Z,94547.80
2023-01-17T16:18:24.719Z,94539.40
2023-01-17T16:21:01.416Z,94532.60
2023-01-17T16:23:28.637Z,94526.80
2023-01-17T16:25:55.578Z,94525.00
2023-01-17T16:28:23.039Z,94525.20
2023-01-17T16:30:49.927Z,94522.20
2023-01-17T16:33:16.739Z,94523.00
2023-01-17T16:35:43.560Z,94528.40
2023-01-17T16:38:12.462Z,94534.20
2023-01-17T16:40:42.366Z,94540.20
2023-01-17T16:43:12.190Z,94541.60
2023-01-17T16:45:45.431Z,94541.00
2023-01-17T16:48:12.831Z,94537.80
2023-01-17T16:50:52.412Z,94545.20
2023-01-17T16:53:26.368Z,94539.60
2023-01-17T16:55:57.120Z,94528.20
2023-01-17T16:58:24.358Z,94525.80
2023-01-17T17:00:51.267Z,94520.60
2023-01-17T17:03:20.377Z,94517.20
2023-01-17T17:05:57.118Z,94519.40
2023-01-17T17:08:24.382Z,94513.40
2023-01-17T17:10:51.572Z,94508.60
2023-01-17T17:13:18.562Z,94512.80
2023-01-17T17:15:45.919Z,94513.00
2023-01-17T17:18:15.426Z,94501.00
2023-01-17T17:20:43.695Z,94498.20
2023-01-17T17:23:11.101Z,94498.60
2023-01-17T17:25:38.501Z,94503.00
2023-01-17T17:28:06.839Z,94497.00
2023-01-17T17:30:34.774Z,94491.40
2023-01-17T17:33:04.934Z,94490.60
2023-01-17T17:35:34.997Z,94498.80
2023-01-17T17:38:02.306Z,94496.40
2023-01-17T17:40:29.769Z,94492.00
2023-01-17T17:42:57.526Z,94480.00
2023-01-17T17:45:24.524Z,94481.00
2023-01-17T17:47:51.540Z,94477.00
2023-01-17T17:50:18.441Z,94474.60
2023-01-17T17:52:45.200Z,94474.80
2023-01-17T17:55:13.511Z,94480.60
2023-01-17T17:57:40.439Z,94490.60
2023-01-17T18:00:08.437Z,94484.80
2023-01-17T18:02:35.790Z,94487.00
2023-01-17T18:05:03.193Z,94496.00
2023-01-17T18:07:33.647Z,94500.40
2023-01-17T18:10:01.003Z,94497.00
2023-01-17T18:12:27.718Z,94493.20
2023-01-17T18:14:54.769Z,94502.40
2023-01-17T18:17:22.925Z,94503.20
2023-01-17T18:19:50.132Z,94497.60
2023-01-17T18:22:16.867Z,94510.60
2023-01-17T18:24:44.558Z,94516.40
2023-01-17T18:27:11.450Z,94514.40
2023-01-17T18:29:38.304Z,94519.80
2023-01-17T18:32:05.900Z,94524.20
2023-01-17T18:34:35.672Z,94525.40
2023-01-17T18:37:02.713Z,94518.40
2023-01-17T18:39:30.495Z,94511.20
2023-01-17T18:41:57.884Z,94511.60
2023-01-17T18:44:27.798Z,94500.20
2023-01-17T18:46:56.538Z,94500.60
2023-01-17T18:49:23.303Z,94494.80
2023-01-17T18:51:50.924Z,94490.20
2023-01-17T18:54:19.603Z,94494.60
2023-01-17T18:56:46.468Z,94492.00
2023-01-17T18:59:14.615Z,94490.20
2023-01-17T19:01:44.739Z,94498.00
2023-01-17T19:04:13.952Z,94497.40
2023-01-17T19:06:43.141Z,94502.80
2023-01-17T19:09:12.665Z,94501.60
2023-01-17T19:11:39.994Z,94498.80
2023-01-17T19:14:07.372Z,94498.00
2023-01-17T19:16:39.320Z,94498.20
2023-01-17T19:19:09.388Z,94490.40
2023-01-17T19:21:36.535Z,94487.80
2023-01-17T19:24:04.340Z,94482.20
2023-01-17T19:26:31.180Z,94475.20
2023-01-17T19:28:59.059Z,94473.80
2023-01-17T19:31:29.311Z,94475.40
2023-01-17T19:33:58.360Z,94485.40
2023-01-17T19:36:32.275Z,94481.20
2023-01-17T19:39:04.754Z,94472.00
2023-01-17T19:41:33.359Z,94474.40
2023-01-17T19:44:03.315Z,94470.40
2023-01-17T19:46:30.479Z,94468.00
2023-01-17T19:48:57.949Z,94471.00
2023-01-17T19:51:26.797Z,94471.40
2023-01-17T19:53:54.883Z,94467.00
2023-01-17T19:56:26.089Z,94463.00
2023-01-17T19:58:53.516Z,94466.60
2023-01-17T20:01:28.476Z,94463.40
2023-01-17T20:03:57.887Z,94454.60
2023-01-17T20:06:28.982Z,94456.80
2023-01-17T20:08:56.388Z,94454.80
2023-01-17T20:11:25.105Z,94458.60
2023-01-17T20:13:54.390Z,94461.80
2023-01-17T20:16:22.504Z,94455.00
2023-01-17T20:18:49.799Z,94450.20
2023-01-17T20:21:18.872Z,94455.00
2023-01-17T20:23:47.623Z,94464.80
2023-01-17T20:26:16.527Z,94471.00
2023-01-17T20:28:46.177Z,94464.40
2023-01-17T20:31:23.057Z,94467.00
2023-01-17T20:33:51.243Z,94465.20
2023-01-17T20:36:19.878Z,94470.40
2023-01-17T20:38:48.700Z,94463.80
2023-01-17T20:41:24.619Z,94471.00
2023-01-17T20:43:57.088Z,94471.00
2023-01-17T20:46:26.189Z,94463.40
2023-01-17T20:48:57.978Z,94472.00
2023-01-17T20:51:27.137Z,94473.80
2023-01-17T20:53:56.599Z,94471.00
2023-01-17T20:56:24.622Z,94475.20
2023-01-17T20:58:52.571Z,94463.00
2023-01-17T21:01:21.289Z,94475.40
2023-01-17T21:03:51.650Z,94469.80
2023-01-17T21:06:19.671Z,94466.00
2023-01-17T21:08:47.752Z,94459.80
2023-01-17T21:11:19.495Z,94467.20
2023-01-17T21:13:48.726Z,94460.40
2023-01-17T21:16:16.974Z,94461.60
2023-01-17T21:18:47.810Z,94466.60
2023-01-17T21:21:18.102Z,94468.00
2023-01-17T21:23:45.368Z,94470.00
2023-01-17T21:26:13.885Z,94476.80
2023-01-17T21:28:43.394Z,94481.80
2023-01-17T21:31:23.043Z,94485.40
2023-01-17T21:34:11.251Z,94494.00
2023-01-17T21:36:40.893Z,94498.20
2023-01-17T21:39:12.507Z,94507.20
2023-01-17T21:41:41.154Z,94507.80
2023-01-17T21:44:12.919Z,94509.40
2023-01-17T21:46:41.333Z,94508.80
2023-01-17T21:49:12.680Z,94519.40
2023-01-17T21:51:52.880Z,94528.20
2023-01-17T21:54:45.972Z,94530.80
2023-01-17T21:57:33.824Z,94543.00
2023-01-17T22:00:00.540Z,94538.80
2023-01-17T22:02:27.347Z,94535.60
2023-01-17T22:04:54.819Z,94534.80
2023-01-17T22:07:21.910Z,94527.20
2023-01-17T22:09:48.613Z,94524.00
2023-01-17T22:12:15.287Z,94520.40
2023-01-17T22:14:41.942Z,94516.80
2023-01-17T22:17:08.766Z,94514.20
2023-01-17T22:19:35.444Z,94505.60
2023-01-17T22:22:02.660Z,94509.60
2023-01-17T22:24:29.604Z,94512.80
2023-01-17T22:26:56.347Z,94512.80
2023-01-17T22:29:23.035Z,94518.80
2023-01-17T22:31:49.683Z,94525.40
2023-01-17T22:34:16.457Z,94523.00
2023-01-17T22:36:43.112Z,94523.20
2023-01-17T22:39:10.291Z,94525.20
2023-01-17T22:41:38.631Z,94538.20
2023-01-17T22:44:05.601Z,94561.00
2023-01-17T22:46:35.827Z,94571.80
2023-01-17T22:49:03.143Z,94579.80
2023-01-17T22:51:29.904Z,94580.80
2023-01-17T22:53:58.749Z,94587.20
2023-01-17T22:56:31.583Z,94585.60
2023-01-17T22:59:00.892Z,94590.80
2023-01-17T23:01:29.866Z,94592.60
2023-01-17T23:03:59.035Z,94594.20
2023-01-17T23:06:28.748Z,94592.20
2023-01-17T23:08:57.851Z,94596.40
2023-01-17T23:11:49.907Z,94594.00
2023-01-17T23:14:23.765Z,94593.80
2023-01-17T23:17:16.425Z,94599.60
2023-01-17T23:19:45.471Z,94606.20
2023-01-17T23:22:21.340Z,94608.20
2023-01-17T23:24:55.020Z,94614.20
2023-01-17T23:27:57.201Z,94614.60
2023-01-17T23:30:26.763Z,94620.40
2023-01-17T23:33:01.497Z,94620.40
2023-01-17T23:35:31.542Z,94620.80
2023-01-17T23:38:17.804Z,94615.20
2023-01-17T23:41:04.929Z,94619.20
2023-01-17T23:43:32.277Z,94626.20
2023-01-17T23:45:58.972Z,94622.40
2023-01-17T23:48:29.039Z,94618.20
2023-01-17T23:51:00.775Z,94627.80
2023-01-17T23:53:28.353Z,94634.40
2023-01-17T23:55:57.220Z,94636.00
2023-01-17T23:58:26.601Z,94642.80
